Gilbertville, IA (50634)

7:52 AM CDT on September 02, 2015 (GMT -0500)
Lanehaven Farms, Inc. | | Change Station
CLOSE
Current Station
Personal Weather Station
Location: Waterloo, IA
Elevation: 950 ft
Nearby Weather Stations

Elev 950 ft 42.41 °N, 92.34 °W | Updated 2 minutes ago

Partly Cloudy
Partly Cloudy
68.8 °F
Feels Like 68.8 °F
N
0.0
Wind Variable Wind from South
Gusts 0.0 mph

Today
High -- | Low -- °F
--% Chance of Precip.
Yesterday
High -- | Low -- °F
Precip. -- in
6:34 AM 7:41 PM
Waning Gibbous, 80% visible
Pressure 29.94 in
Visibility 7.0 miles
Clouds Few 7500 ft
Scattered Clouds 10000 ft
Mostly Cloudy 12000 ft
Dew Point 68 °F
Humidity 96%
Rainfall 0.00 in
Snow Depth Not available.
UV 0 out of 12
Pollen 10.60 out of 12
Air Quality Not available.
Flu Activity Not available.
METAR KALO 021154Z 20004KT 7SM -RA FEW075 SCT100 BKN120 22/20 A2996 RMK AO2 RAE00B32 SLP138 P0000 60000 T02170200 10233 20217 58003
Pressure 29.94 in
Visibility 7.0 miles
Clouds Few 7500 ft
Scattered Clouds 10000 ft
Mostly Cloudy 12000 ft
Dew Point 68 °F
Humidity 96%
Rainfall 0.00 in
Snow Depth Not available.
UV 0 out of 12
Pollen 10.60 out of 12
Air Quality Not available.
Flu Activity Not available.
METAR KALO 021154Z 20004KT 7SM -RA FEW075 SCT100 BKN120 22/20 A2996 RMK AO2 RAE00B32 SLP138 P0000 60000 T02170200 10233 20217 58003

10-Day Weather Forecast

×

Almanac

Astronomy

Sep. 02, 2015 Rise Set
Actual Time
Civil Twilight
Nautical Twilight
Astronomical Twilight
Moon
Length of Visible Light
Length of Day
Tomorrow will be .
, % of the Moon is Illuminated

Today's Extremes

State Highs State Lows

Community

WunderPhotos

Upload Photos

1,851,738 photos uploaded!

WunderBlogs® & News

Nearby

Air Quality

  Air Quality AQ Index Pollutant
Not available.

Snow Depth

Station Depth Elevation

Earthquake Activity

City Distance Mag. Time & Date
Minimum magnitude displayed is 2.5.

Coastal Water Temperatures

Place Temperature

Stations

Nearby Weather Stations

Station Location Temp. Windchill Dew Point Humidity Wind Precip. Elev Updated Type